Weather at El Arish International Airport

Public forecast

Using degrees Celsius for public forecast. Weather courtesy of forecast.io.

Closest aviation weather report (METAR) to El Arish International Airport

Closest report is Ben Gurion International Airport, 77.6 nm (143.7 km) NE.

2022/11/26 08:20 (retrieved 40 minutes ago)

LLBG 260820Z 19012KT 9999 SCT050 19/15 Q1017 NOSIG

Aviation forecast (TAF) for El Arish International Airport

2022/11/26 06:29 (retrieved 3 hours ago)

TAF HEAR 260500Z 2606/2712 22010KT 6000 SCT025 TEMPO 2606/2612 VRB03KT 2000 RA/BR BKN025